sensor_id;sensor_type;location;lat;lon;timestamp;P1;durP1;ratioP1;P2;durP2;ratioP2
51692;SDS011;37777;53.066;21.638;2023-08-06T00:00:17;19.50;;;16.15;;
51692;SDS011;37777;53.066;21.638;2023-08-06T00:07:19;19.88;;;15.70;;
51692;SDS011;37777;53.066;21.638;2023-08-06T00:14:20;19.63;;;15.30;;
51692;SDS011;37777;53.066;21.638;2023-08-06T00:21:21;25.20;;;16.50;;
51692;SDS011;37777;53.066;21.638;2023-08-06T00:28:23;22.02;;;16.55;;
51692;SDS011;37777;53.066;21.638;2023-08-06T00:35:24;21.88;;;15.93;;
51692;SDS011;37777;53.066;21.638;2023-08-06T00:42:26;18.55;;;14.57;;
51692;SDS011;37777;53.066;21.638;2023-08-06T00:49:27;22.60;;;16.42;;
51692;SDS011;37777;53.066;21.638;2023-08-06T00:56:29;25.45;;;16.35;;
51692;SDS011;37777;53.066;21.638;2023-08-06T01:03:30;23.33;;;17.67;;
51692;SDS011;37777;53.066;21.638;2023-08-06T01:10:48;25.25;;;16.95;;
51692;SDS011;37777;53.066;21.638;2023-08-06T01:17:58;29.27;;;18.60;;
51692;SDS011;37777;53.066;21.638;2023-08-06T01:25:00;32.03;;;18.02;;
51692;SDS011;37777;53.066;21.638;2023-08-06T01:32:02;24.20;;;17.58;;
51692;SDS011;37777;53.066;21.638;2023-08-06T01:39:05;25.33;;;17.40;;
51692;SDS011;37777;53.066;21.638;2023-08-06T01:46:06;22.92;;;18.40;;
51692;SDS011;37777;53.066;21.638;2023-08-06T01:53:08;19.33;;;15.98;;
51692;SDS011;37777;53.066;21.638;2023-08-06T02:00:09;21.17;;;16.58;;
51692;SDS011;37777;53.066;21.638;2023-08-06T02:07:11;22.42;;;16.55;;
51692;SDS011;37777;53.066;21.638;2023-08-06T02:14:13;23.73;;;17.05;;
51692;SDS011;37777;53.066;21.638;2023-08-06T02:21:14;24.60;;;16.92;;
51692;SDS011;37777;53.066;21.638;2023-08-06T02:28:16;32.58;;;22.38;;
51692;SDS011;37777;53.066;21.638;2023-08-06T02:35:17;33.80;;;22.35;;
51692;SDS011;37777;53.066;21.638;2023-08-06T02:42:19;44.20;;;26.40;;
51692;SDS011;37777;53.066;21.638;2023-08-06T02:49:20;33.47;;;20.90;;
51692;SDS011;37777;53.066;21.638;2023-08-06T02:56:22;30.58;;;19.50;;
51692;SDS011;37777;53.066;21.638;2023-08-06T03:03:23;27.77;;;18.85;;
51692;SDS011;37777;53.066;21.638;2023-08-06T03:10:25;20.65;;;16.63;;
51692;SDS011;37777;53.066;21.638;2023-08-06T03:17:26;27.60;;;19.23;;
51692;SDS011;37777;53.066;21.638;2023-08-06T03:24:28;28.75;;;18.65;;
51692;SDS011;37777;53.066;21.638;2023-08-06T03:31:29;29.10;;;19.25;;
51692;SDS011;37777;53.066;21.638;2023-08-06T03:38:30;25.10;;;19.63;;
51692;SDS011;37777;53.066;21.638;2023-08-06T03:45:32;24.40;;;18.35;;
51692;SDS011;37777;53.066;21.638;2023-08-06T03:52:33;27.45;;;19.38;;
51692;SDS011;37777;53.066;21.638;2023-08-06T03:59:35;30.75;;;19.17;;
51692;SDS011;37777;53.066;21.638;2023-08-06T04:06:36;26.23;;;20.15;;
51692;SDS011;37777;53.066;21.638;2023-08-06T04:13:38;25.10;;;20.25;;
51692;SDS011;37777;53.066;21.638;2023-08-06T04:20:48;28.52;;;19.33;;
51692;SDS011;37777;53.066;21.638;2023-08-06T04:27:50;23.52;;;18.75;;
51692;SDS011;37777;53.066;21.638;2023-08-06T04:34:52;20.75;;;18.02;;
51692;SDS011;37777;53.066;21.638;2023-08-06T04:41:53;23.05;;;16.55;;
51692;SDS011;37777;53.066;21.638;2023-08-06T04:48:56;23.75;;;17.95;;
51692;SDS011;37777;53.066;21.638;2023-08-06T04:55:57;20.75;;;17.33;;
51692;SDS011;37777;53.066;21.638;2023-08-06T05:02:59;22.48;;;15.18;;
51692;SDS011;37777;53.066;21.638;2023-08-06T05:10:02;17.35;;;14.02;;
51692;SDS011;37777;53.066;21.638;2023-08-06T05:17:05;16.88;;;14.13;;
51692;SDS011;37777;53.066;21.638;2023-08-06T05:24:07;17.17;;;14.95;;
51692;SDS011;37777;53.066;21.638;2023-08-06T05:31:08;18.75;;;14.93;;
51692;SDS011;37777;53.066;21.638;2023-08-06T05:38:09;14.13;;;11.93;;
51692;SDS011;37777;53.066;21.638;2023-08-06T05:45:11;18.02;;;13.30;;
51692;SDS011;37777;53.066;21.638;2023-08-06T05:52:13;18.77;;;13.52;;
51692;SDS011;37777;53.066;21.638;2023-08-06T05:59:14;18.92;;;14.13;;
51692;SDS011;37777;53.066;21.638;2023-08-06T06:06:15;17.20;;;13.10;;
51692;SDS011;37777;53.066;21.638;2023-08-06T06:13:18;16.42;;;14.18;;
51692;SDS011;37777;53.066;21.638;2023-08-06T06:20:20;18.42;;;14.10;;
51692;SDS011;37777;53.066;21.638;2023-08-06T06:27:21;14.48;;;12.93;;
51692;SDS011;37777;53.066;21.638;2023-08-06T06:34:22;14.65;;;12.63;;
51692;SDS011;37777;53.066;21.638;2023-08-06T06:41:24;14.05;;;12.68;;
51692;SDS011;37777;53.066;21.638;2023-08-06T06:48:28;17.25;;;12.38;;
51692;SDS011;37777;53.066;21.638;2023-08-06T06:55:30;14.38;;;12.88;;
51692;SDS011;37777;53.066;21.638;2023-08-06T07:02:31;15.90;;;11.02;;
51692;SDS011;37777;53.066;21.638;2023-08-06T07:09:33;14.48;;;13.00;;
51692;SDS011;37777;53.066;21.638;2023-08-06T07:16:34;16.92;;;12.55;;
51692;SDS011;37777;53.066;21.638;2023-08-06T07:23:36;14.25;;;12.57;;
51692;SDS011;37777;53.066;21.638;2023-08-06T07:30:38;14.88;;;12.45;;
51692;SDS011;37777;53.066;21.638;2023-08-06T07:37:40;17.00;;;13.07;;
51692;SDS011;37777;53.066;21.638;2023-08-06T07:44:42;23.65;;;13.80;;
51692;SDS011;37777;53.066;21.638;2023-08-06T07:51:43;13.48;;;12.10;;
51692;SDS011;37777;53.066;21.638;2023-08-06T07:58:45;13.50;;;11.85;;
51692;SDS011;37777;53.066;21.638;2023-08-06T08:05:46;13.57;;;12.25;;
51692;SDS011;37777;53.066;21.638;2023-08-06T08:12:48;13.05;;;11.77;;
51692;SDS011;37777;53.066;21.638;2023-08-06T08:19:49;21.67;;;12.57;;
51692;SDS011;37777;53.066;21.638;2023-08-06T08:26:51;17.90;;;13.48;;
51692;SDS011;37777;53.066;21.638;2023-08-06T08:33:53;15.80;;;13.15;;
51692;SDS011;37777;53.066;21.638;2023-08-06T08:40:56;14.05;;;12.70;;
51692;SDS011;37777;53.066;21.638;2023-08-06T08:47:57;15.27;;;12.63;;
51692;SDS011;37777;53.066;21.638;2023-08-06T08:54:59;15.15;;;13.43;;
51692;SDS011;37777;53.066;21.638;2023-08-06T09:02:02;14.15;;;12.65;;
51692;SDS011;37777;53.066;21.638;2023-08-06T09:09:15;15.07;;;13.73;;
51692;SDS011;37777;53.066;21.638;2023-08-06T09:16:19;15.48;;;13.52;;
51692;SDS011;37777;53.066;21.638;2023-08-06T09:23:20;14.93;;;13.48;;
51692;SDS011;37777;53.066;21.638;2023-08-06T09:30:29;14.85;;;13.32;;
51692;SDS011;37777;53.066;21.638;2023-08-06T09:37:37;15.38;;;13.95;;
51692;SDS011;37777;53.066;21.638;2023-08-06T09:44:39;16.70;;;12.82;;
51692;SDS011;37777;53.066;21.638;2023-08-06T09:51:42;16.50;;;15.10;;
51692;SDS011;37777;53.066;21.638;2023-08-06T09:58:44;15.02;;;13.82;;
51692;SDS011;37777;53.066;21.638;2023-08-06T10:05:48;16.42;;;14.70;;
51692;SDS011;37777;53.066;21.638;2023-08-06T10:12:51;16.45;;;14.95;;
51692;SDS011;37777;53.066;21.638;2023-08-06T10:19:55;16.95;;;15.18;;
51692;SDS011;37777;53.066;21.638;2023-08-06T10:26:58;16.42;;;14.93;;
51692;SDS011;37777;53.066;21.638;2023-08-06T10:34:00;16.23;;;14.63;;
51692;SDS011;37777;53.066;21.638;2023-08-06T10:41:02;14.85;;;13.65;;
51692;SDS011;37777;53.066;21.638;2023-08-06T10:48:04;14.63;;;13.48;;
51692;SDS011;37777;53.066;21.638;2023-08-06T10:55:06;16.38;;;13.73;;
51692;SDS011;37777;53.066;21.638;2023-08-06T11:02:07;19.55;;;13.93;;
51692;SDS011;37777;53.066;21.638;2023-08-06T11:09:10;15.63;;;14.18;;
51692;SDS011;37777;53.066;21.638;2023-08-06T11:16:18;15.82;;;14.40;;
51692;SDS011;37777;53.066;21.638;2023-08-06T11:23:21;15.07;;;13.77;;
51692;SDS011;37777;53.066;21.638;2023-08-06T11:30:23;14.73;;;13.52;;
51692;SDS011;37777;53.066;21.638;2023-08-06T11:37:24;15.50;;;13.73;;
51692;SDS011;37777;53.066;21.638;2023-08-06T11:44:26;16.85;;;15.38;;
51692;SDS011;37777;53.066;21.638;2023-08-06T11:51:32;16.17;;;14.82;;
51692;SDS011;37777;53.066;21.638;2023-08-06T11:58:34;16.42;;;14.93;;
51692;SDS011;37777;53.066;21.638;2023-08-06T12:05:35;17.92;;;16.20;;
51692;SDS011;37777;53.066;21.638;2023-08-06T12:12:36;17.77;;;15.93;;
51692;SDS011;37777;53.066;21.638;2023-08-06T12:19:39;17.80;;;16.02;;
51692;SDS011;37777;53.066;21.638;2023-08-06T12:26:41;19.65;;;17.27;;
51692;SDS011;37777;53.066;21.638;2023-08-06T12:33:42;16.95;;;15.32;;
51692;SDS011;37777;53.066;21.638;2023-08-06T12:40:44;19.38;;;16.60;;
51692;SDS011;37777;53.066;21.638;2023-08-06T12:47:45;19.58;;;17.10;;
51692;SDS011;37777;53.066;21.638;2023-08-06T12:54:47;17.25;;;15.85;;
51692;SDS011;37777;53.066;21.638;2023-08-06T13:01:48;18.55;;;16.60;;
51692;SDS011;37777;53.066;21.638;2023-08-06T13:08:51;26.08;;;16.52;;
51692;SDS011;37777;53.066;21.638;2023-08-06T13:15:52;18.40;;;14.85;;
51692;SDS011;37777;53.066;21.638;2023-08-06T13:22:54;17.33;;;15.93;;
51692;SDS011;37777;53.066;21.638;2023-08-06T13:29:56;19.50;;;16.48;;
51692;SDS011;37777;53.066;21.638;2023-08-06T13:36:57;17.50;;;15.85;;
51692;SDS011;37777;53.066;21.638;2023-08-06T13:43:59;21.67;;;16.25;;
51692;SDS011;37777;53.066;21.638;2023-08-06T13:51:00;16.60;;;15.20;;
51692;SDS011;37777;53.066;21.638;2023-08-06T13:58:02;16.25;;;14.75;;
51692;SDS011;37777;53.066;21.638;2023-08-06T14:05:03;16.20;;;14.50;;
51692;SDS011;37777;53.066;21.638;2023-08-06T14:12:06;17.05;;;15.35;;
51692;SDS011;37777;53.066;21.638;2023-08-06T14:19:07;17.02;;;15.52;;
51692;SDS011;37777;53.066;21.638;2023-08-06T14:26:09;16.88;;;15.23;;
51692;SDS011;37777;53.066;21.638;2023-08-06T14:33:12;16.83;;;15.15;;
51692;SDS011;37777;53.066;21.638;2023-08-06T14:40:27;17.90;;;16.20;;
51692;SDS011;37777;53.066;21.638;2023-08-06T14:47:34;17.17;;;15.55;;
51692;SDS011;37777;53.066;21.638;2023-08-06T14:54:36;26.50;;;16.75;;
51692;SDS011;37777;53.066;21.638;2023-08-06T15:01:37;17.33;;;15.73;;
51692;SDS011;37777;53.066;21.638;2023-08-06T15:08:39;18.08;;;16.23;;
51692;SDS011;37777;53.066;21.638;2023-08-06T15:15:40;17.08;;;15.27;;
51692;SDS011;37777;53.066;21.638;2023-08-06T15:22:43;15.90;;;14.55;;
51692;SDS011;37777;53.066;21.638;2023-08-06T15:29:45;17.15;;;15.55;;
51692;SDS011;37777;53.066;21.638;2023-08-06T15:36:46;19.30;;;16.90;;
51692;SDS011;37777;53.066;21.638;2023-08-06T15:43:48;18.58;;;16.92;;
51692;SDS011;37777;53.066;21.638;2023-08-06T15:50:49;19.00;;;16.98;;
51692;SDS011;37777;53.066;21.638;2023-08-06T15:57:50;19.17;;;16.75;;
51692;SDS011;37777;53.066;21.638;2023-08-06T16:04:52;18.17;;;16.42;;
51692;SDS011;37777;53.066;21.638;2023-08-06T16:11:54;19.05;;;17.30;;
51692;SDS011;37777;53.066;21.638;2023-08-06T16:18:56;18.20;;;16.38;;
51692;SDS011;37777;53.066;21.638;2023-08-06T16:25:57;17.48;;;15.90;;
51692;SDS011;37777;53.066;21.638;2023-08-06T16:32:59;18.02;;;16.48;;
51692;SDS011;37777;53.066;21.638;2023-08-06T16:40:00;19.05;;;17.33;;
51692;SDS011;37777;53.066;21.638;2023-08-06T16:47:03;16.48;;;15.00;;
51692;SDS011;37777;53.066;21.638;2023-08-06T16:54:07;17.90;;;16.33;;
51692;SDS011;37777;53.066;21.638;2023-08-06T17:01:08;16.33;;;14.93;;
51692;SDS011;37777;53.066;21.638;2023-08-06T17:08:10;15.95;;;14.70;;
51692;SDS011;37777;53.066;21.638;2023-08-06T17:15:11;17.67;;;16.17;;
51692;SDS011;37777;53.066;21.638;2023-08-06T17:22:13;17.95;;;16.33;;
51692;SDS011;37777;53.066;21.638;2023-08-06T17:29:15;18.70;;;17.05;;
51692;SDS011;37777;53.066;21.638;2023-08-06T17:36:16;20.58;;;18.42;;
51692;SDS011;37777;53.066;21.638;2023-08-06T17:43:18;17.45;;;16.02;;
51692;SDS011;37777;53.066;21.638;2023-08-06T17:50:19;17.27;;;15.48;;
51692;SDS011;37777;53.066;21.638;2023-08-06T17:57:20;17.02;;;15.30;;
51692;SDS011;37777;53.066;21.638;2023-08-06T18:04:22;16.35;;;14.98;;
51692;SDS011;37777;53.066;21.638;2023-08-06T18:11:23;15.90;;;14.18;;
51692;SDS011;37777;53.066;21.638;2023-08-06T18:18:25;14.80;;;13.70;;
51692;SDS011;37777;53.066;21.638;2023-08-06T18:25:26;14.90;;;13.73;;
51692;SDS011;37777;53.066;21.638;2023-08-06T18:32:28;15.35;;;14.25;;
51692;SDS011;37777;53.066;21.638;2023-08-06T18:39:30;15.07;;;13.88;;
51692;SDS011;37777;53.066;21.638;2023-08-06T18:46:32;14.70;;;13.30;;
51692;SDS011;37777;53.066;21.638;2023-08-06T18:53:34;12.85;;;11.95;;
51692;SDS011;37777;53.066;21.638;2023-08-06T19:00:38;13.73;;;12.65;;
51692;SDS011;37777;53.066;21.638;2023-08-06T19:07:42;13.40;;;12.30;;
51692;SDS011;37777;53.066;21.638;2023-08-06T19:14:44;14.02;;;12.73;;
51692;SDS011;37777;53.066;21.638;2023-08-06T19:21:45;13.48;;;12.27;;
51692;SDS011;37777;53.066;21.638;2023-08-06T19:28:50;13.27;;;12.27;;
51692;SDS011;37777;53.066;21.638;2023-08-06T19:35:52;14.63;;;13.32;;
51692;SDS011;37777;53.066;21.638;2023-08-06T19:42:54;14.07;;;12.90;;
51692;SDS011;37777;53.066;21.638;2023-08-06T19:49:56;14.65;;;13.32;;
51692;SDS011;37777;53.066;21.638;2023-08-06T19:56:57;13.35;;;12.35;;
51692;SDS011;37777;53.066;21.638;2023-08-06T20:03:58;13.23;;;12.13;;
51692;SDS011;37777;53.066;21.638;2023-08-06T20:11:00;12.55;;;11.55;;
51692;SDS011;37777;53.066;21.638;2023-08-06T20:18:01;12.13;;;11.13;;
51692;SDS011;37777;53.066;21.638;2023-08-06T20:25:03;11.80;;;10.95;;
51692;SDS011;37777;53.066;21.638;2023-08-06T20:32:05;11.90;;;11.00;;
51692;SDS011;37777;53.066;21.638;2023-08-06T20:39:07;12.32;;;10.82;;
51692;SDS011;37777;53.066;21.638;2023-08-06T20:46:10;11.90;;;10.90;;
51692;SDS011;37777;53.066;21.638;2023-08-06T20:53:12;11.80;;;10.68;;
51692;SDS011;37777;53.066;21.638;2023-08-06T21:00:13;10.88;;;10.18;;
51692;SDS011;37777;53.066;21.638;2023-08-06T21:07:15;11.95;;;11.00;;
51692;SDS011;37777;53.066;21.638;2023-08-06T21:14:17;12.00;;;11.02;;
51692;SDS011;37777;53.066;21.638;2023-08-06T21:21:18;11.57;;;10.57;;
51692;SDS011;37777;53.066;21.638;2023-08-06T21:28:19;11.65;;;10.85;;
51692;SDS011;37777;53.066;21.638;2023-08-06T21:35:21;11.20;;;10.50;;
51692;SDS011;37777;53.066;21.638;2023-08-06T21:42:22;11.30;;;10.30;;
51692;SDS011;37777;53.066;21.638;2023-08-06T21:49:24;11.20;;;10.35;;
51692;SDS011;37777;53.066;21.638;2023-08-06T21:56:25;11.73;;;10.95;;
51692;SDS011;37777;53.066;21.638;2023-08-06T22:03:27;11.60;;;10.80;;
51692;SDS011;37777;53.066;21.638;2023-08-06T22:10:28;11.93;;;11.23;;
51692;SDS011;37777;53.066;21.638;2023-08-06T22:17:30;12.48;;;11.57;;
51692;SDS011;37777;53.066;21.638;2023-08-06T22:24:32;12.30;;;11.50;;
51692;SDS011;37777;53.066;21.638;2023-08-06T22:31:33;12.07;;;11.25;;
51692;SDS011;37777;53.066;21.638;2023-08-06T22:38:35;12.00;;;11.20;;
51692;SDS011;37777;53.066;21.638;2023-08-06T22:45:36;12.32;;;11.52;;
51692;SDS011;37777;53.066;21.638;2023-08-06T22:52:38;12.35;;;11.55;;
51692;SDS011;37777;53.066;21.638;2023-08-06T22:59:40;12.27;;;11.48;;
51692;SDS011;37777;53.066;21.638;2023-08-06T23:06:41;12.23;;;11.43;;
51692;SDS011;37777;53.066;21.638;2023-08-06T23:13:43;12.63;;;11.82;;
51692;SDS011;37777;53.066;21.638;2023-08-06T23:20:44;12.60;;;11.70;;
51692;SDS011;37777;53.066;21.638;2023-08-06T23:27:46;11.80;;;11.10;;
51692;SDS011;37777;53.066;21.638;2023-08-06T23:34:47;12.07;;;11.30;;
51692;SDS011;37777;53.066;21.638;2023-08-06T23:41:54;11.90;;;11.07;;
51692;SDS011;37777;53.066;21.638;2023-08-06T23:48:56;12.30;;;11.50;;
51692;SDS011;37777;53.066;21.638;2023-08-06T23:55:57;12.10;;;11.27;;
